createdAt,value
2018-09-20T00:02:08.221Z,69.90
2018-09-20T00:04:20.439Z,69.40
2018-09-20T00:06:32.662Z,70.78
2018-09-20T00:08:44.877Z,69.79
2018-09-20T00:10:57.074Z,69.83
2018-09-20T00:13:09.311Z,70.25
2018-09-20T00:15:21.515Z,69.95
2018-09-20T00:17:33.711Z,70.44
2018-09-20T00:19:45.957Z,70.77
2018-09-20T00:21:58.162Z,70.98
2018-09-20T00:24:10.408Z,71.34
2018-09-20T00:26:22.635Z,72.39
2018-09-20T00:28:34.820Z,71.61
2018-09-20T00:30:47.031Z,72.78
2018-09-20T00:32:59.211Z,72.76
2018-09-20T00:35:11.399Z,72.43
2018-09-20T00:37:23.611Z,72.38
2018-09-20T00:39:35.823Z,72.36
2018-09-20T00:41:48.067Z,73.03
2018-09-20T00:44:00.255Z,72.90
2018-09-20T00:46:12.446Z,72.81
2018-09-20T00:48:24.639Z,72.66
2018-09-20T00:50:37.015Z,72.83
2018-09-20T00:52:49.216Z,73.92
2018-09-20T00:55:01.411Z,73.34
2018-09-20T00:57:13.619Z,73.09
2018-09-20T00:59:25.818Z,73.96
2018-09-20T01:01:37.991Z,73.53
2018-09-20T01:03:50.214Z,74.32
2018-09-20T01:06:02.488Z,73.10
2018-09-20T01:08:14.775Z,73.66
2018-09-20T01:10:26.974Z,73.39
2018-09-20T01:12:39.185Z,73.33
2018-09-20T01:14:51.354Z,73.30
2018-09-20T01:17:03.540Z,73.87
2018-09-20T01:19:15.746Z,74.19
2018-09-20T01:21:27.968Z,73.77
2018-09-20T01:23:40.146Z,74.35
2018-09-20T01:25:52.386Z,73.25
2018-09-20T01:28:04.726Z,73.03
2018-09-20T01:30:16.890Z,73.88
2018-09-20T01:32:29.050Z,73.69
2018-09-20T01:34:41.238Z,73.63
2018-09-20T01:36:53.402Z,73.55
2018-09-20T01:39:10.215Z,73.03
2018-09-20T01:41:22.414Z,73.82
2018-09-20T01:43:34.611Z,73.75
2018-09-20T01:45:46.772Z,73.38
2018-09-20T01:47:58.978Z,74.11
2018-09-20T01:50:11.137Z,73.78
2018-09-20T01:52:23.376Z,73.38
2018-09-20T01:54:35.542Z,73.05
2018-09-20T01:56:47.755Z,72.98
2018-09-20T01:58:59.990Z,73.13
2018-09-20T02:01:12.171Z,72.72
2018-09-20T02:03:24.368Z,73.16
2018-09-20T02:05:36.626Z,72.85
2018-09-20T02:07:48.804Z,72.77
2018-09-20T02:10:01.002Z,73.58
2018-09-20T02:12:13.275Z,73.75
2018-09-20T02:14:25.455Z,73.94
2018-09-20T02:16:37.687Z,73.59
2018-09-20T02:18:49.873Z,73.35
2018-09-20T02:21:02.086Z,72.55
2018-09-20T02:23:14.262Z,72.56
2018-09-20T02:25:26.488Z,73.30
2018-09-20T02:27:38.677Z,72.85
2018-09-20T02:29:52.172Z,73.48
2018-09-20T02:32:04.409Z,74.37
2018-09-20T02:34:20.162Z,74.14
2018-09-20T02:36:32.653Z,75.46
2018-09-20T02:38:55.077Z,74.65
2018-09-20T02:41:07.515Z,75.48
2018-09-20T02:43:19.755Z,75.00
2018-09-20T02:45:32.030Z,75.73
2018-09-20T02:47:44.232Z,75.27
2018-09-20T02:49:56.415Z,75.48
2018-09-20T02:52:08.664Z,74.45
2018-09-20T02:54:20.863Z,74.92
2018-09-20T02:56:33.091Z,74.72
2018-09-20T02:58:45.315Z,74.69
2018-09-20T03:00:57.513Z,74.29
2018-09-20T03:03:09.695Z,75.02
2018-09-20T03:05:21.951Z,74.83
2018-09-20T03:07:34.166Z,75.04
2018-09-20T03:09:46.395Z,75.21
2018-09-20T03:11:58.628Z,76.18
2018-09-20T03:14:10.839Z,75.54
2018-09-20T03:16:23.022Z,75.24
2018-09-20T03:18:35.186Z,75.24
2018-09-20T03:20:47.407Z,76.60
2018-09-20T03:22:59.754Z,76.85
2018-09-20T03:25:11.990Z,76.15
2018-09-20T03:27:24.165Z,75.82
2018-09-20T03:29:36.381Z,75.78
2018-09-20T03:31:48.597Z,75.78
2018-09-20T03:34:00.845Z,76.90
2018-09-20T03:36:13.036Z,76.74
2018-09-20T03:38:25.249Z,75.69
2018-09-20T03:40:37.423Z,76.23
2018-09-20T03:42:49.606Z,75.99
2018-09-20T03:45:01.801Z,76.93
2018-09-20T03:47:13.986Z,76.67
2018-09-20T03:49:26.187Z,77.52
2018-09-20T03:51:38.381Z,77.36
2018-09-20T03:53:50.538Z,77.28
2018-09-20T03:56:02.723Z,76.75
2018-09-20T03:58:14.940Z,76.77
2018-09-20T04:00:27.123Z,77.37
2018-09-20T04:02:39.370Z,76.64
2018-09-20T04:04:51.567Z,76.72
2018-09-20T04:07:03.777Z,76.64
2018-09-20T04:09:15.984Z,77.29
2018-09-20T04:11:28.184Z,76.44
2018-09-20T04:13:40.429Z,76.40
2018-09-20T04:15:52.635Z,76.39
2018-09-20T04:18:04.930Z,77.10
2018-09-20T04:20:17.133Z,77.23
2018-09-20T04:22:29.335Z,77.14
2018-09-20T04:24:41.566Z,76.85
2018-09-20T04:26:53.763Z,77.25
2018-09-20T04:29:06.032Z,77.40
2018-09-20T04:31:18.235Z,76.87
2018-09-20T04:33:30.456Z,77.18
2018-09-20T04:35:42.642Z,78.28
2018-09-20T04:37:54.821Z,77.45
2018-09-20T04:40:07.064Z,77.76
2018-09-20T04:42:19.280Z,78.57
2018-09-20T04:44:31.475Z,77.77
2018-09-20T04:46:43.675Z,77.50
2018-09-20T04:48:55.888Z,77.73
2018-09-20T04:51:08.107Z,78.38
2018-09-20T04:53:20.379Z,78.21
2018-09-20T04:55:32.500Z,78.39
2018-09-20T04:57:44.684Z,77.91
2018-09-20T04:59:56.962Z,78.03
2018-09-20T05:02:09.180Z,78.28
2018-09-20T05:04:21.385Z,77.88
2018-09-20T05:06:33.627Z,77.73
2018-09-20T05:08:45.847Z,78.11
2018-09-20T05:10:58.052Z,78.68
2018-09-20T05:13:10.328Z,77.92
2018-09-20T05:15:22.558Z,78.47
2018-09-20T05:17:34.805Z,78.13
2018-09-20T05:19:47.069Z,78.14
2018-09-20T05:21:59.274Z,78.19
2018-09-20T05:24:11.468Z,78.35
2018-09-20T05:26:23.681Z,78.75
2018-09-20T05:28:35.972Z,78.16
2018-09-20T05:30:48.172Z,78.45
2018-09-20T05:33:00.394Z,78.16
2018-09-20T05:35:12.633Z,77.56
2018-09-20T05:37:24.859Z,77.42
2018-09-20T05:39:37.089Z,77.98
2018-09-20T05:41:49.286Z,77.38
2018-09-20T05:44:01.600Z,77.76
2018-09-20T05:46:13.784Z,77.00
2018-09-20T05:48:26.012Z,77.59
2018-09-20T05:50:38.270Z,77.26
2018-09-20T05:52:50.595Z,76.16
2018-09-20T05:55:02.799Z,75.29
2018-09-20T05:57:15.651Z,75.21
2018-09-20T05:59:27.830Z,75.86
2018-09-20T06:01:40.024Z,75.54
2018-09-20T06:03:52.254Z,73.71
2018-09-20T06:06:04.484Z,73.48
2018-09-20T06:08:16.686Z,73.22
2018-09-20T06:10:28.888Z,71.30
2018-09-20T06:12:41.243Z,70.31
2018-09-20T06:14:53.488Z,70.74
2018-09-20T06:17:05.766Z,70.54
2018-09-20T06:19:17.980Z,70.37
2018-09-20T06:21:30.183Z,71.55
2018-09-20T06:23:42.370Z,71.66
2018-09-20T06:25:54.578Z,71.52
2018-09-20T06:28:06.756Z,69.67
2018-09-20T06:30:18.948Z,69.18
2018-09-20T06:32:31.202Z,69.43
2018-09-20T06:34:43.482Z,68.70
2018-09-20T06:36:55.697Z,66.08
2018-09-20T06:39:09.500Z,65.32
2018-09-20T06:41:21.734Z,63.17
2018-09-20T06:43:33.930Z,62.92
2018-09-20T06:45:46.126Z,61.58
2018-09-20T06:47:58.356Z,60.07
2018-09-20T06:50:10.799Z,60.34
2018-09-20T06:52:23.024Z,59.05
2018-09-20T06:54:35.212Z,58.82
2018-09-20T06:56:47.394Z,58.83
2018-09-20T06:58:59.627Z,57.85
2018-09-20T07:01:11.875Z,56.91
2018-09-20T07:03:24.138Z,57.05
2018-09-20T07:05:36.303Z,55.75
2018-09-20T07:07:48.519Z,56.02
2018-09-20T07:10:00.903Z,56.40
2018-09-20T07:12:13.126Z,54.96
2018-09-20T07:14:25.301Z,54.59
2018-09-20T07:16:37.522Z,55.74
2018-09-20T07:18:49.718Z,54.93
2018-09-20T07:21:02.344Z,54.90
2018-09-20T07:23:14.576Z,53.94
2018-09-20T07:25:26.799Z,54.26
2018-09-20T07:27:38.999Z,53.66
2018-09-20T07:29:51.179Z,53.01
2018-09-20T07:32:03.407Z,53.60
2018-09-20T07:34:15.599Z,53.69
2018-09-20T07:36:28.014Z,52.84
2018-09-20T07:38:40.289Z,52.32
2018-09-20T07:43:48.156Z,51.49
2018-09-20T07:46:00.360Z,51.03
2018-09-20T07:48:12.586Z,50.58
2018-09-20T07:50:24.875Z,50.90
2018-09-20T07:52:37.086Z,50.72
2018-09-20T07:54:49.320Z,50.71
2018-09-20T07:57:01.568Z,50.03
2018-09-20T07:59:13.839Z,49.60
2018-09-20T08:01:26.097Z,48.91
2018-09-20T08:03:38.239Z,49.11
2018-09-20T08:05:50.472Z,50.41
2018-09-20T08:08:02.740Z,49.18
2018-09-20T08:10:14.953Z,49.61
2018-09-20T08:12:27.152Z,49.05
2018-09-20T08:14:39.366Z,49.14
2018-09-20T08:16:51.600Z,49.44
2018-09-20T08:19:03.843Z,50.11
2018-09-20T08:21:16.094Z,49.37
2018-09-20T08:23:28.314Z,49.71
2018-09-20T08:25:40.537Z,49.65
2018-09-20T08:27:52.813Z,48.70
2018-09-20T08:30:05.860Z,47.56
2018-09-20T08:32:18.107Z,48.10
2018-09-20T08:34:30.311Z,47.54
2018-09-20T08:36:42.503Z,47.09
2018-09-20T08:38:54.772Z,47.51
2018-09-20T08:41:07.047Z,46.92
2018-09-20T08:43:19.219Z,47.66
2018-09-20T08:45:31.429Z,46.85
2018-09-20T08:47:43.634Z,46.89
2018-09-20T08:49:55.885Z,46.39
2018-09-20T08:52:08.127Z,46.20
2018-09-20T08:54:20.376Z,46.40
2018-09-20T08:56:32.576Z,46.43
2018-09-20T08:58:44.742Z,46.20
2018-09-20T09:00:56.984Z,46.29
2018-09-20T09:03:09.203Z,46.05
2018-09-20T09:05:21.427Z,46.40
2018-09-20T09:07:33.715Z,46.13
2018-09-20T09:09:45.889Z,46.15
2018-09-20T09:11:58.228Z,45.71
2018-09-20T09:14:10.441Z,45.74
2018-09-20T09:16:22.630Z,45.49
2018-09-20T09:18:34.841Z,44.49
2018-09-20T09:20:47.051Z,44.55
2018-09-20T09:22:59.322Z,44.85
2018-09-20T09:25:11.486Z,44.10
2018-09-20T09:27:23.671Z,44.79
2018-09-20T09:29:35.918Z,44.18
2018-09-20T09:31:48.214Z,44.68
2018-09-20T09:34:00.455Z,44.45
2018-09-20T09:36:12.741Z,44.27
2018-09-20T09:38:25.020Z,44.60
2018-09-20T09:40:37.210Z,43.96
2018-09-20T09:42:49.405Z,43.24
2018-09-20T09:45:01.606Z,43.31
2018-09-20T09:47:13.812Z,43.96
2018-09-20T09:49:26.083Z,44.39
2018-09-20T09:51:38.299Z,43.55
2018-09-20T09:53:50.639Z,42.92
2018-09-20T09:56:02.826Z,43.52
2018-09-20T09:58:15.018Z,43.94
2018-09-20T10:00:32.426Z,43.83
2018-09-20T10:02:44.628Z,43.76
2018-09-20T10:04:57.231Z,44.05
2018-09-20T10:07:09.539Z,42.95
2018-09-20T10:09:21.743Z,42.53
2018-09-20T10:11:33.978Z,42.73
2018-09-20T10:13:46.146Z,42.93
2018-09-20T10:15:58.435Z,43.40
2018-09-20T10:18:10.635Z,43.13
2018-09-20T10:20:22.871Z,42.74
2018-09-20T10:22:35.072Z,42.92
2018-09-20T10:24:47.279Z,42.63
2018-09-20T10:26:59.504Z,41.86
2018-09-20T10:29:11.739Z,42.16
2018-09-20T10:31:23.981Z,42.24
2018-09-20T10:33:36.203Z,42.05
2018-09-20T10:35:48.412Z,41.80
2018-09-20T10:38:00.620Z,42.29
2018-09-20T10:40:12.898Z,41.95
2018-09-20T10:42:25.140Z,42.33
2018-09-20T10:44:37.399Z,42.12
2018-09-20T10:46:49.632Z,41.32
2018-09-20T10:49:01.903Z,41.17
2018-09-20T10:51:14.136Z,41.60
2018-09-20T10:53:26.388Z,42.18
2018-09-20T10:55:38.621Z,41.62
2018-09-20T10:57:50.846Z,41.65
2018-09-20T11:00:03.160Z,41.24
2018-09-20T11:02:15.426Z,41.21
2018-09-20T11:04:27.607Z,41.32
2018-09-20T11:06:39.846Z,41.57
2018-09-20T11:08:52.099Z,40.86
2018-09-20T11:11:04.435Z,41.12
2018-09-20T11:13:16.595Z,40.28
2018-09-20T11:15:28.791Z,40.80
2018-09-20T11:17:41.043Z,40.17
2018-09-20T11:19:53.367Z,40.46
2018-09-20T11:22:05.606Z,40.70
2018-09-20T11:24:17.847Z,39.51
2018-09-20T11:26:30.079Z,40.36
2018-09-20T11:28:42.299Z,39.71
2018-09-20T11:30:54.580Z,40.30
2018-09-20T11:33:06.839Z,40.20
2018-09-20T11:35:19.068Z,39.47
2018-09-20T11:37:31.278Z,39.96
2018-09-20T11:39:43.502Z,39.79
2018-09-20T11:41:55.696Z,40.21
2018-09-20T11:44:08.060Z,39.05
2018-09-20T11:46:20.336Z,39.76
2018-09-20T11:48:32.697Z,40.38
2018-09-20T11:50:44.919Z,40.03
2018-09-20T11:52:57.143Z,40.79
2018-09-20T11:55:09.381Z,39.83
2018-09-20T11:57:21.641Z,40.52
2018-09-20T11:59:33.851Z,40.23
2018-09-20T12:01:46.088Z,40.60
2018-09-20T12:03:58.260Z,40.01
2018-09-20T12:06:10.483Z,39.53
2018-09-20T12:08:22.699Z,38.87
2018-09-20T12:10:34.954Z,39.96
2018-09-20T12:12:47.575Z,40.00
2018-09-20T12:14:59.824Z,39.99
2018-09-20T12:17:12.043Z,39.79
2018-09-20T12:19:24.286Z,39.99
2018-09-20T12:21:36.479Z,40.19
2018-09-20T12:23:48.732Z,39.93
2018-09-20T12:26:01.047Z,40.51
2018-09-20T12:28:13.212Z,39.67
2018-09-20T12:30:25.454Z,39.75
2018-09-20T12:32:37.689Z,39.58
2018-09-20T12:34:49.923Z,39.83
2018-09-20T12:37:02.142Z,39.62
2018-09-20T12:39:14.697Z,39.14
2018-09-20T12:41:26.915Z,38.35
2018-09-20T12:43:39.187Z,39.48
2018-09-20T12:45:51.426Z,40.09
2018-09-20T12:48:03.704Z,40.06
2018-09-20T12:50:15.922Z,39.58
2018-09-20T12:52:28.206Z,40.07
2018-09-20T12:54:40.440Z,39.09
2018-09-20T12:56:52.663Z,40.01
2018-09-20T12:59:04.999Z,39.03
2018-09-20T13:01:18.018Z,39.60
2018-09-20T13:03:30.311Z,39.23
2018-09-20T13:05:42.567Z,39.53
2018-09-20T13:07:54.815Z,39.22
2018-09-20T13:10:07.052Z,38.40
2018-09-20T13:12:19.274Z,38.81
2018-09-20T13:14:31.479Z,37.74
2018-09-20T13:16:43.712Z,37.30
2018-09-20T13:18:55.923Z,38.36
2018-09-20T13:21:08.171Z,39.49
2018-09-20T13:23:20.375Z,38.52
2018-09-20T13:25:32.674Z,39.00
2018-09-20T13:27:44.882Z,37.98
2018-09-20T13:29:57.284Z,38.28
2018-09-20T13:32:09.518Z,38.41
2018-09-20T13:34:21.758Z,38.53
2018-09-20T13:36:34.030Z,38.02
2018-09-20T13:38:46.264Z,38.64
2018-09-20T13:40:58.543Z,38.99
2018-09-20T13:43:10.825Z,39.25
2018-09-20T13:45:23.095Z,39.31
2018-09-20T13:47:35.407Z,40.54
2018-09-20T13:49:47.635Z,39.88
2018-09-20T13:51:59.864Z,39.39
2018-09-20T13:54:12.133Z,38.15
2018-09-20T13:56:24.564Z,39.57
2018-09-20T13:58:37.268Z,39.51
2018-09-20T14:00:49.495Z,39.83
2018-09-20T14:03:01.727Z,39.11
2018-09-20T14:05:13.992Z,39.20
2018-09-20T14:07:26.231Z,38.83
2018-09-20T14:09:38.458Z,39.52
2018-09-20T14:11:50.735Z,39.71
2018-09-20T14:14:02.999Z,39.33
2018-09-20T14:16:15.233Z,39.85
2018-09-20T14:18:27.500Z,40.20
2018-09-20T14:20:39.735Z,39.67
2018-09-20T14:22:52.008Z,40.65
2018-09-20T14:25:04.272Z,40.04
2018-09-20T14:27:16.495Z,39.98
2018-09-20T14:29:28.820Z,39.52
2018-09-20T14:31:40.983Z,39.89
2018-09-20T14:33:53.203Z,39.97
2018-09-20T14:36:05.491Z,40.08
2018-09-20T14:38:17.712Z,40.81
2018-09-20T14:40:29.987Z,40.22
2018-09-20T14:42:42.230Z,39.56
2018-09-20T14:44:54.435Z,38.69
2018-09-20T14:47:06.733Z,40.04
2018-09-20T14:49:18.959Z,39.59
2018-09-20T14:51:31.405Z,38.34
2018-09-20T14:53:43.650Z,37.66
2018-09-20T14:55:56.195Z,37.87
2018-09-20T14:58:08.438Z,38.45
2018-09-20T15:00:20.675Z,38.60
2018-09-20T15:02:32.906Z,39.42
2018-09-20T15:04:45.144Z,39.36
2018-09-20T15:06:57.386Z,38.25
2018-09-20T15:09:11.313Z,38.10
2018-09-20T15:11:23.547Z,38.57
2018-09-20T15:13:35.789Z,37.73
2018-09-20T15:15:48.037Z,37.62
2018-09-20T15:18:00.302Z,38.15
2018-09-20T15:20:12.539Z,38.62
2018-09-20T15:22:24.767Z,38.93
2018-09-20T15:24:37.103Z,39.00
2018-09-20T15:26:49.278Z,38.92
2018-09-20T15:29:01.532Z,40.39
2018-09-20T15:31:13.756Z,39.48
2018-09-20T15:33:25.980Z,39.80
2018-09-20T15:35:38.230Z,39.87
2018-09-20T15:37:50.446Z,39.57
2018-09-20T15:40:02.806Z,40.63
2018-09-20T15:42:14.909Z,39.77
2018-09-20T15:44:27.175Z,40.75
2018-09-20T15:46:39.387Z,40.00
2018-09-20T15:48:51.749Z,40.52
2018-09-20T15:51:03.985Z,40.16
2018-09-20T15:53:16.198Z,40.20
2018-09-20T15:55:28.420Z,40.00
2018-09-20T15:57:40.603Z,40.25
2018-09-20T15:59:52.854Z,39.20
2018-09-20T16:02:05.896Z,40.42
2018-09-20T16:04:18.170Z,40.77
2018-09-20T16:06:30.455Z,39.76
2018-09-20T16:08:42.670Z,39.21
2018-09-20T16:10:54.947Z,38.39
2018-09-20T16:13:07.158Z,38.16
2018-09-20T16:15:19.376Z,38.26
2018-09-20T16:17:31.572Z,38.50
2018-09-20T16:19:43.877Z,38.85
2018-09-20T16:21:56.189Z,38.96
2018-09-20T16:24:08.377Z,39.52
2018-09-20T16:26:20.615Z,38.53
2018-09-20T16:28:44.628Z,38.50
2018-09-20T16:31:08.073Z,37.79
2018-09-20T16:33:36.176Z,38.11
2018-09-20T16:36:02.924Z,37.99
2018-09-20T16:38:32.915Z,37.36
2018-09-20T16:40:46.815Z,37.41
2018-09-20T16:42:59.053Z,37.62
2018-09-20T16:45:11.311Z,37.94
2018-09-20T16:47:23.590Z,38.82
2018-09-20T16:49:35.816Z,39.23
2018-09-20T16:51:48.099Z,38.74
2018-09-20T16:54:00.333Z,39.61
2018-09-20T16:56:12.560Z,40.56
2018-09-20T16:58:24.849Z,40.91
2018-09-20T17:00:37.068Z,40.65
2018-09-20T17:02:49.341Z,40.73
2018-09-20T17:05:01.612Z,41.10
2018-09-20T17:07:13.844Z,40.65
2018-09-20T17:09:26.101Z,40.54
2018-09-20T17:11:38.318Z,41.20
2018-09-20T17:13:50.630Z,40.71
2018-09-20T17:16:02.889Z,41.41
2018-09-20T17:18:15.123Z,40.71
2018-09-20T17:20:27.367Z,40.91
2018-09-20T17:22:39.668Z,41.23
2018-09-20T17:24:51.961Z,41.79
2018-09-20T17:27:04.254Z,41.54
2018-09-20T17:29:16.535Z,41.17
2018-09-20T17:31:28.766Z,41.85
2018-09-20T17:33:41.054Z,42.43
2018-09-20T17:35:54.667Z,41.33
2018-09-20T17:38:07.847Z,42.00
2018-09-20T17:40:21.672Z,42.32
2018-09-20T17:42:34.808Z,42.55
2018-09-20T17:44:47.238Z,42.16
2018-09-20T17:46:59.495Z,43.15
2018-09-20T17:49:11.777Z,43.34
2018-09-20T17:51:24.330Z,44.51
2018-09-20T17:53:37.002Z,44.82
2018-09-20T17:55:49.644Z,45.90
2018-09-20T17:58:02.072Z,46.54
2018-09-20T18:00:14.396Z,46.48
2018-09-20T18:02:26.629Z,47.65
2018-09-20T18:04:38.919Z,49.37
2018-09-20T18:06:51.207Z,49.62
2018-09-20T18:09:05.451Z,49.63
2018-09-20T18:11:17.803Z,48.86
2018-09-20T18:13:30.005Z,49.65
2018-09-20T18:15:42.322Z,50.26
2018-09-20T18:17:54.589Z,49.61
2018-09-20T18:20:06.818Z,49.87
2018-09-20T18:22:19.099Z,50.71
2018-09-20T18:24:31.404Z,50.16
2018-09-20T18:26:47.331Z,51.03
2018-09-20T18:28:59.626Z,51.79
2018-09-20T18:31:11.939Z,50.87
2018-09-20T18:33:24.178Z,51.10
2018-09-20T18:35:36.464Z,51.32
2018-09-20T18:37:49.004Z,52.14
2018-09-20T18:40:01.250Z,51.46
2018-09-20T18:42:13.595Z,52.17
2018-09-20T18:44:25.833Z,51.57
2018-09-20T18:46:38.237Z,52.68
2018-09-20T18:48:50.504Z,52.40
2018-09-20T18:51:02.721Z,52.96
2018-09-20T18:53:15.023Z,53.07
2018-09-20T18:55:27.318Z,52.74
2018-09-20T18:57:39.583Z,53.34
2018-09-20T18:59:57.417Z,53.50
2018-09-20T19:02:09.734Z,53.51
2018-09-20T19:04:22.045Z,53.89
2018-09-20T19:06:34.314Z,54.27
2018-09-20T19:08:46.543Z,54.47
2018-09-20T19:10:58.778Z,54.37
2018-09-20T19:13:11.073Z,54.38
2018-09-20T19:15:23.416Z,54.40
2018-09-20T19:17:35.744Z,54.23
2018-09-20T19:19:47.975Z,53.25
2018-09-20T19:22:00.281Z,53.51
2018-09-20T19:24:12.543Z,53.12
2018-09-20T19:26:24.832Z,54.56
2018-09-20T19:28:37.062Z,54.53
2018-09-20T19:30:49.318Z,53.40
2018-09-20T19:33:01.590Z,53.52
2018-09-20T19:35:13.908Z,54.03
2018-09-20T19:37:26.146Z,53.38
2018-09-20T19:39:38.409Z,54.26
2018-09-20T19:41:50.669Z,53.57
2018-09-20T19:44:02.951Z,53.67
2018-09-20T19:46:15.170Z,54.43
2018-09-20T19:48:27.524Z,53.63
2018-09-20T19:50:39.772Z,55.06
2018-09-20T19:52:52.049Z,54.14
2018-09-20T19:55:04.390Z,54.88
2018-09-20T19:57:16.888Z,55.34
2018-09-20T19:59:29.188Z,56.05
2018-09-20T20:01:41.438Z,56.40
2018-09-20T20:03:53.789Z,56.72
2018-09-20T20:06:06.066Z,55.83
2018-09-20T20:08:18.318Z,56.13
2018-09-20T20:10:30.577Z,56.37
2018-09-20T20:12:42.817Z,55.91
2018-09-20T20:14:55.053Z,56.03
2018-09-20T20:17:07.316Z,56.03
2018-09-20T20:19:19.624Z,55.73
2018-09-20T20:21:31.795Z,55.99
2018-09-20T20:23:44.035Z,56.75
2018-09-20T20:25:56.272Z,56.22
2018-09-20T20:28:08.480Z,56.39
2018-09-20T20:30:20.693Z,56.43
2018-09-20T20:32:33.005Z,55.91
2018-09-20T20:34:45.202Z,56.67
2018-09-20T20:36:57.483Z,56.25
2018-09-20T20:39:10.257Z,56.60
2018-09-20T20:41:22.474Z,56.33
2018-09-20T20:43:34.734Z,56.69
2018-09-20T20:45:46.935Z,55.89
2018-09-20T20:47:59.179Z,56.04
2018-09-20T20:50:11.391Z,56.91
2018-09-20T20:52:23.643Z,56.49
2018-09-20T20:54:35.882Z,58.10
2018-09-20T20:56:48.180Z,57.01
2018-09-20T20:59:00.475Z,57.49
2018-09-20T21:01:19.704Z,58.16
2018-09-20T21:03:31.991Z,58.37
2018-09-20T21:05:44.350Z,57.90
2018-09-20T21:07:56.540Z,58.54
2018-09-20T21:10:08.762Z,58.97
2018-09-20T21:12:21.000Z,58.31
2018-09-20T21:14:33.241Z,58.41
2018-09-20T21:16:45.508Z,58.69
2018-09-20T21:18:57.741Z,58.81
2018-09-20T21:21:09.965Z,58.31
2018-09-20T21:23:22.190Z,59.58
2018-09-20T21:25:34.444Z,58.96
2018-09-20T21:27:46.755Z,58.39
2018-09-20T21:29:58.985Z,59.33
2018-09-20T21:32:11.216Z,59.69
2018-09-20T21:34:23.483Z,59.24
2018-09-20T21:36:35.825Z,58.98
2018-09-20T21:38:48.042Z,59.76
2018-09-20T21:41:00.355Z,58.96
2018-09-20T21:43:12.566Z,59.65
2018-09-20T21:45:24.781Z,60.34
2018-09-20T21:47:40.495Z,60.98
2018-09-20T21:49:52.658Z,59.91
2018-09-20T21:52:04.887Z,60.90
2018-09-20T21:54:17.216Z,60.33
2018-09-20T21:56:29.418Z,61.13
2018-09-20T21:58:46.733Z,61.38
2018-09-20T22:01:02.042Z,60.99
2018-09-20T22:03:14.222Z,61.39
2018-09-20T22:05:26.453Z,60.92
2018-09-20T22:07:38.673Z,61.62
2018-09-20T22:09:50.894Z,61.02
2018-09-20T22:12:03.151Z,61.97
2018-09-20T22:14:15.388Z,60.95
2018-09-20T22:16:27.624Z,61.44
2018-09-20T22:18:39.895Z,61.71
2018-09-20T22:20:52.102Z,61.64
2018-09-20T22:23:04.416Z,61.71
2018-09-20T22:25:16.651Z,62.25
2018-09-20T22:27:28.915Z,62.47
2018-09-20T22:29:41.116Z,63.05
2018-09-20T22:31:53.338Z,62.45
2018-09-20T22:34:05.613Z,63.61
2018-09-20T22:36:18.075Z,63.60
2018-09-20T22:38:30.324Z,63.76
2018-09-20T22:40:42.548Z,63.89
2018-09-20T22:42:54.754Z,63.96
2018-09-20T22:45:07.641Z,64.10
2018-09-20T22:47:19.889Z,62.91
2018-09-20T22:49:32.094Z,63.88
2018-09-20T22:51:44.320Z,63.08
2018-09-20T22:53:56.533Z,63.09
2018-09-20T22:56:08.738Z,63.23
2018-09-20T22:58:20.984Z,62.40
2018-09-20T23:00:33.182Z,62.94
2018-09-20T23:02:45.417Z,62.33
2018-09-20T23:04:57.691Z,62.76
2018-09-20T23:07:09.940Z,61.85
2018-09-20T23:09:22.132Z,62.70
2018-09-20T23:11:34.416Z,62.51
2018-09-20T23:13:46.639Z,63.24
2018-09-20T23:15:58.821Z,62.67
2018-09-20T23:18:11.014Z,63.22
2018-09-20T23:20:23.282Z,63.51
2018-09-20T23:22:35.495Z,64.26
2018-09-20T23:24:47.712Z,64.00
2018-09-20T23:26:59.888Z,64.25
2018-09-20T23:29:15.919Z,63.84
2018-09-20T23:31:28.175Z,63.78
2018-09-20T23:33:40.391Z,64.01
2018-09-20T23:35:52.715Z,64.69
2018-09-20T23:38:05.034Z,64.38
2018-09-20T23:40:17.246Z,64.04
2018-09-20T23:42:29.438Z,63.84
2018-09-20T23:44:41.632Z,64.11
2018-09-20T23:46:53.856Z,64.67
2018-09-20T23:49:06.076Z,64.42
2018-09-20T23:51:18.271Z,65.01
2018-09-20T23:53:30.455Z,64.43
2018-09-20T23:55:42.717Z,64.37
2018-09-20T23:57:54.936Z,65.49
